createdAt,value
2018-07-20T00:01:22.141Z,101111.95
2018-07-20T00:03:49.264Z,101100.46
2018-07-20T00:06:16.471Z,101103.66
2018-07-20T00:08:43.607Z,101098.33
2018-07-20T00:11:10.731Z,101099.91
2018-07-20T00:13:37.909Z,101102.23
2018-07-20T00:16:05.159Z,101097.03
2018-07-20T00:18:32.394Z,101100.17
2018-07-20T00:20:59.516Z,101109.45
2018-07-20T00:23:26.646Z,101106.66
2018-07-20T00:25:53.764Z,101111.87
2018-07-20T00:28:20.868Z,101104.74
2018-07-20T00:30:48.003Z,101104.84
2018-07-20T00:33:15.235Z,101108.65
2018-07-20T00:35:42.343Z,101107.25
2018-07-20T00:38:09.450Z,101102.34
2018-07-20T00:40:36.689Z,101092.50
2018-07-20T00:43:04.517Z,101098.37
2018-07-20T00:45:31.627Z,101101.08
2018-07-20T00:47:58.701Z,101099.16
2018-07-20T00:50:25.704Z,101095.70
2018-07-20T00:52:52.701Z,101094.33
2018-07-20T00:55:19.688Z,101096.39
2018-07-20T00:57:46.686Z,101093.58
2018-07-20T01:00:13.709Z,101090.02
2018-07-20T01:02:40.931Z,101096.02
2018-07-20T01:05:07.937Z,101101.28
2018-07-20T01:07:34.945Z,101100.77
2018-07-20T01:10:02.054Z,101098.86
2018-07-20T01:12:29.076Z,101101.85
2018-07-20T01:14:56.085Z,101098.14
2018-07-20T01:17:23.099Z,101106.20
2018-07-20T01:19:50.465Z,101096.77
2018-07-20T01:22:17.475Z,101099.03
2018-07-20T01:24:44.507Z,101096.17
2018-07-20T01:27:11.564Z,101099.00
2018-07-20T01:29:38.587Z,101086.47
2018-07-20T01:32:05.685Z,101085.22
2018-07-20T01:34:32.804Z,101084.58
2018-07-20T01:36:59.905Z,101090.15
2018-07-20T01:39:26.885Z,101084.12
2018-07-20T01:41:53.897Z,101079.17
2018-07-20T01:44:20.978Z,101074.64
2018-07-20T01:46:47.982Z,101077.77
2018-07-20T01:49:15.009Z,101077.66
2018-07-20T01:51:42.004Z,101074.27
2018-07-20T01:54:09.081Z,101073.95
2018-07-20T01:56:36.273Z,101072.53
2018-07-20T01:59:03.322Z,101069.09
2018-07-20T02:01:30.332Z,101068.58
2018-07-20T02:03:57.332Z,101066.14
2018-07-20T02:06:24.341Z,101068.05
2018-07-20T02:08:51.444Z,101061.80
2018-07-20T02:11:18.460Z,101068.11
2018-07-20T02:13:45.537Z,101065.59
2018-07-20T02:16:12.748Z,101067.77
2018-07-20T02:18:39.816Z,101062.50
2018-07-20T02:21:06.890Z,101055.67
2018-07-20T02:23:33.897Z,101057.89
2018-07-20T02:26:00.916Z,101054.04
2018-07-20T02:28:28.247Z,101050.64
2018-07-20T02:30:55.245Z,101052.05
2018-07-20T02:33:22.373Z,101050.48
2018-07-20T02:35:49.369Z,101045.90
2018-07-20T02:38:16.369Z,101041.39
2018-07-20T02:40:43.393Z,101042.48
2018-07-20T02:43:10.386Z,101042.11
2018-07-20T02:45:37.406Z,101040.85
2018-07-20T02:48:04.465Z,101042.52
2018-07-20T02:50:31.515Z,101041.74
2018-07-20T02:52:58.594Z,101044.53
2018-07-20T02:55:25.668Z,101036.90
2018-07-20T02:57:52.910Z,101041.83
2018-07-20T03:00:19.999Z,101051.53
2018-07-20T03:02:47.020Z,101042.06
2018-07-20T03:05:14.298Z,101039.22
2018-07-20T03:07:41.329Z,101043.50
2018-07-20T03:10:08.388Z,101042.54
2018-07-20T03:12:35.413Z,101036.67
2018-07-20T03:15:02.466Z,101039.72
2018-07-20T03:17:29.487Z,101043.37
2018-07-20T03:19:56.517Z,101038.16
2018-07-20T03:22:23.520Z,101044.70
2018-07-20T03:24:50.534Z,101042.44
2018-07-20T03:27:17.600Z,101044.80
2018-07-20T03:29:44.589Z,101045.44
2018-07-20T03:32:11.682Z,101043.37
2018-07-20T03:34:38.707Z,101048.29
2018-07-20T03:37:06.032Z,101048.62
2018-07-20T03:39:33.180Z,101049.86
2018-07-20T03:42:00.529Z,101049.98
2018-07-20T03:44:27.532Z,101047.96
2018-07-20T03:46:54.632Z,101042.34
2018-07-20T03:49:21.732Z,101045.86
2018-07-20T03:51:48.726Z,101039.55
2018-07-20T03:54:15.720Z,101036.96
2018-07-20T03:56:43.041Z,101034.84
2018-07-20T03:59:11.713Z,101032.21
2018-07-20T04:01:38.714Z,101034.38
2018-07-20T04:04:05.777Z,101030.98
2018-07-20T04:06:32.849Z,101035.87
2018-07-20T04:08:59.948Z,101032.02
2018-07-20T04:11:26.958Z,101031.35
2018-07-20T04:13:53.988Z,101026.13
2018-07-20T04:16:20.991Z,101028.06
2018-07-20T04:18:48.268Z,101031.16
2018-07-20T04:21:15.260Z,101027.56
2018-07-20T04:23:42.276Z,101019.42
2018-07-20T04:26:09.282Z,101020.55
2018-07-20T04:28:36.294Z,101025.34
2018-07-20T04:31:03.316Z,101027.03
2018-07-20T04:33:30.336Z,101028.66
2018-07-20T04:35:57.340Z,101029.28
2018-07-20T04:38:24.553Z,101028.59
2018-07-20T04:40:58.563Z,101030.31
2018-07-20T04:43:25.555Z,101031.75
2018-07-20T04:45:52.562Z,101037.93
2018-07-20T04:48:19.660Z,101039.26
2018-07-20T04:50:46.688Z,101030.82
2018-07-20T04:53:13.925Z,101032.48
2018-07-20T04:55:40.940Z,101027.20
2018-07-20T04:58:07.961Z,101033.21
2018-07-20T05:00:34.994Z,101033.11
2018-07-20T05:03:01.996Z,101037.13
2018-07-20T05:05:29.024Z,101030.28
2018-07-20T05:07:56.038Z,101030.61
2018-07-20T05:10:23.068Z,101039.17
2018-07-20T05:12:50.068Z,101038.91
2018-07-20T05:15:17.055Z,101032.38
2018-07-20T05:17:44.080Z,101030.95
2018-07-20T05:20:11.096Z,101028.73
2018-07-20T05:22:38.124Z,101036.32
2018-07-20T05:25:05.309Z,101034.90
2018-07-20T05:27:32.328Z,101038.20
2018-07-20T05:29:59.335Z,101033.35
2018-07-20T05:32:26.400Z,101037.88
2018-07-20T05:34:53.386Z,101035.50
2018-07-20T05:37:20.384Z,101030.84
2018-07-20T05:39:47.417Z,101027.66
2018-07-20T05:42:15.235Z,101027.95
2018-07-20T05:44:42.225Z,101036.25
2018-07-20T05:47:09.305Z,101031.06
2018-07-20T05:49:36.348Z,101033.53
2018-07-20T05:52:03.456Z,101032.67
2018-07-20T05:54:30.492Z,101029.39
2018-07-20T05:56:57.509Z,101029.00
2018-07-20T05:59:24.529Z,101028.05
2018-07-20T06:01:51.672Z,101027.98
2018-07-20T06:04:18.680Z,101024.73
2018-07-20T06:06:45.681Z,101025.39
2018-07-20T06:09:12.993Z,101023.83
2018-07-20T06:11:40.218Z,101026.17
2018-07-20T06:14:07.716Z,101034.34
2018-07-20T06:16:34.833Z,101026.95
2018-07-20T06:19:02.107Z,101033.47
2018-07-20T06:21:29.038Z,101037.88
2018-07-20T06:23:56.208Z,101036.66
2018-07-20T06:26:23.331Z,101031.77
2018-07-20T06:28:50.360Z,101029.15
2018-07-20T06:31:17.376Z,101031.14
2018-07-20T06:33:44.481Z,101025.97
2018-07-20T06:36:11.602Z,101027.20
2018-07-20T06:38:38.588Z,101028.86
2018-07-20T06:41:05.922Z,101033.97
2018-07-20T06:43:32.937Z,101033.13
2018-07-20T06:46:00.050Z,101030.92
2018-07-20T06:48:27.341Z,101026.48
2018-07-20T06:50:54.374Z,101034.31
2018-07-20T06:53:21.406Z,101039.00
2018-07-20T06:55:48.572Z,101044.38
2018-07-20T06:58:15.576Z,101041.50
2018-07-20T07:00:42.646Z,101032.87
2018-07-20T07:03:09.672Z,101035.16
2018-07-20T07:05:36.687Z,101037.58
2018-07-20T07:08:03.732Z,101039.95
2018-07-20T07:10:30.752Z,101035.31
2018-07-20T07:12:57.841Z,101038.55
2018-07-20T07:15:24.849Z,101035.56
2018-07-20T07:17:51.889Z,101035.73
2018-07-20T07:20:18.917Z,101037.05
2018-07-20T07:22:46.008Z,101033.37
2018-07-20T07:25:13.172Z,101040.46
2018-07-20T07:27:40.304Z,101035.51
2018-07-20T07:30:07.370Z,101041.70
2018-07-20T07:32:34.376Z,101052.48
2018-07-20T07:35:01.497Z,101045.97
2018-07-20T07:37:28.621Z,101044.69
2018-07-20T07:39:55.890Z,101046.77
2018-07-20T07:42:22.917Z,100989.89
2018-07-20T07:44:49.969Z,101046.92
2018-07-20T07:47:17.039Z,101046.46
2018-07-20T07:49:44.041Z,101051.76
2018-07-20T07:52:11.370Z,101047.33
2018-07-20T07:54:39.360Z,101043.91
2018-07-20T07:57:06.361Z,101042.34
2018-07-20T07:59:33.556Z,101041.48
2018-07-20T08:02:00.659Z,101031.89
2018-07-20T08:04:27.696Z,101029.03
2018-07-20T08:06:54.715Z,101032.56
2018-07-20T08:09:21.712Z,101026.50
2018-07-20T08:11:48.761Z,101027.81
2018-07-20T08:14:15.856Z,101029.53
2018-07-20T08:16:42.846Z,101026.84
2018-07-20T08:19:09.857Z,101022.18
2018-07-20T08:21:37.108Z,101022.59
2018-07-20T08:24:04.280Z,101022.15
2018-07-20T08:26:31.502Z,101017.13
2018-07-20T08:28:58.503Z,101017.73
2018-07-20T08:31:25.528Z,101018.83
2018-07-20T08:33:52.520Z,100999.47
2018-07-20T08:36:19.533Z,101015.12
2018-07-20T08:38:46.628Z,101016.75
2018-07-20T08:41:13.705Z,101012.60
2018-07-20T08:43:40.740Z,101011.44
2018-07-20T08:46:07.845Z,101001.82
2018-07-20T08:48:34.989Z,101000.66
2018-07-20T08:51:02.017Z,101009.94
2018-07-20T08:53:29.037Z,101008.02
2018-07-20T08:55:56.117Z,101013.52
2018-07-20T08:58:23.130Z,101005.91
2018-07-20T09:00:50.169Z,101007.57
2018-07-20T09:03:17.180Z,101002.16
2018-07-20T09:05:44.191Z,100996.63
2018-07-20T09:08:11.198Z,100994.54
2018-07-20T09:10:38.289Z,100993.70
2018-07-20T09:13:05.306Z,100995.41
2018-07-20T09:15:32.299Z,100998.80
2018-07-20T09:17:59.328Z,100992.61
2018-07-20T09:20:26.319Z,100992.31
2018-07-20T09:22:53.337Z,100990.34
2018-07-20T09:25:20.345Z,100991.62
2018-07-20T09:27:47.336Z,100990.66
2018-07-20T09:30:14.347Z,100986.19
2018-07-20T09:32:41.370Z,100985.42
2018-07-20T09:35:08.471Z,100987.09
2018-07-20T09:37:35.467Z,100991.15
2018-07-20T09:40:02.464Z,100988.26
2018-07-20T09:42:29.512Z,100989.95
2018-07-20T09:44:56.524Z,100983.63
2018-07-20T09:47:23.525Z,100984.84
2018-07-20T09:49:50.534Z,100979.73
2018-07-20T09:52:17.662Z,100980.31
2018-07-20T09:54:44.852Z,100991.88
2018-07-20T09:57:11.885Z,100989.94
2018-07-20T09:59:39.203Z,100991.83
2018-07-20T10:02:06.233Z,100987.95
2018-07-20T10:04:33.424Z,100994.51
2018-07-20T10:07:00.421Z,100986.41
2018-07-20T10:09:27.440Z,100989.84
2018-07-20T10:11:54.560Z,100984.91
2018-07-20T10:14:21.889Z,100976.41
2018-07-20T10:16:48.928Z,100983.41
2018-07-20T10:19:15.958Z,100978.98
2018-07-20T10:21:43.768Z,100982.31
2018-07-20T10:24:10.821Z,100966.88
2018-07-20T10:26:37.834Z,100975.89
2018-07-20T10:29:04.866Z,100970.55
2018-07-20T10:31:31.913Z,100974.69
2018-07-20T10:33:58.913Z,100973.02
2018-07-20T10:36:25.991Z,100966.66
2018-07-20T10:38:53.460Z,100964.36
2018-07-20T10:41:20.465Z,100960.16
2018-07-20T10:43:47.453Z,100960.59
2018-07-20T10:46:15.106Z,100956.59
2018-07-20T10:48:42.179Z,100959.62
2018-07-20T10:51:09.237Z,100954.48
2018-07-20T10:53:36.351Z,100947.73
2018-07-20T10:56:03.387Z,100952.31
2018-07-20T10:58:30.540Z,100949.95
2018-07-20T11:00:57.688Z,100948.91
2018-07-20T11:03:24.690Z,100958.27
2018-07-20T11:05:51.892Z,100957.57
2018-07-20T11:08:19.100Z,100960.06
2018-07-20T11:10:46.729Z,100953.61
2018-07-20T11:13:13.757Z,100950.94
2018-07-20T11:15:41.028Z,100949.48
2018-07-20T11:18:08.080Z,100943.70
2018-07-20T11:20:35.121Z,100942.58
2018-07-20T11:23:02.426Z,100943.50
2018-07-20T11:25:30.201Z,100944.86
2018-07-20T11:27:57.291Z,100944.01
2018-07-20T11:30:24.641Z,100936.44
2018-07-20T11:32:51.920Z,100942.38
2018-07-20T11:35:19.104Z,100938.95
2018-07-20T11:37:46.397Z,100929.45
2018-07-20T11:40:13.495Z,100925.87
2018-07-20T11:42:40.633Z,100927.12
2018-07-20T11:45:07.698Z,100923.17
2018-07-20T11:47:34.789Z,100915.20
2018-07-20T11:50:01.792Z,100918.66
2018-07-20T11:52:29.183Z,100911.49
2018-07-20T11:54:56.197Z,100917.59
2018-07-20T11:57:23.226Z,100907.59
2018-07-20T11:59:50.248Z,100902.61
2018-07-20T12:02:17.338Z,100908.72
2018-07-20T12:04:44.372Z,100906.66
2018-07-20T12:07:11.393Z,100898.77
2018-07-20T12:09:38.424Z,100899.29
2018-07-20T12:12:05.748Z,100904.41
2018-07-20T12:14:32.758Z,100899.38
2018-07-20T12:16:59.823Z,100899.44
2018-07-20T12:19:26.966Z,100893.14
2018-07-20T12:21:54.049Z,100890.20
2018-07-20T12:24:21.068Z,100889.91
2018-07-20T12:26:48.252Z,100891.22
2018-07-20T12:29:15.359Z,100883.06
2018-07-20T12:31:42.356Z,100888.65
2018-07-20T12:34:09.452Z,100885.23
2018-07-20T12:36:36.468Z,100878.38
2018-07-20T12:39:06.356Z,100876.63
2018-07-20T12:41:33.485Z,100874.08
2018-07-20T12:44:00.470Z,100871.50
2018-07-20T12:46:27.472Z,100877.45
2018-07-20T12:48:54.484Z,100874.88
2018-07-20T12:51:21.505Z,100873.94
2018-07-20T12:53:48.589Z,100866.66
2018-07-20T12:56:15.893Z,100869.25
2018-07-20T12:58:43.166Z,100864.88
2018-07-20T13:01:10.234Z,100862.42
2018-07-20T13:03:37.409Z,100860.05
2018-07-20T13:06:04.505Z,100858.14
2018-07-20T13:08:31.528Z,100865.50
2018-07-20T13:10:58.573Z,100859.79
2018-07-20T13:13:25.605Z,100862.92
2018-07-20T13:15:52.890Z,100860.00
2018-07-20T13:18:19.965Z,100850.13
2018-07-20T13:20:47.067Z,100853.63
2018-07-20T13:23:14.660Z,100850.92
2018-07-20T13:25:41.688Z,100847.52
2018-07-20T13:28:08.802Z,100832.27
2018-07-20T13:30:35.897Z,100842.92
2018-07-20T13:33:03.420Z,100834.68
2018-07-20T13:35:30.444Z,100845.50
2018-07-20T13:37:57.472Z,100838.33
2018-07-20T13:40:24.928Z,100837.77
2018-07-20T13:42:51.997Z,100837.34
2018-07-20T13:45:19.034Z,100840.00
2018-07-20T13:47:46.150Z,100830.75
2018-07-20T13:50:13.189Z,100825.02
2018-07-20T13:52:40.233Z,100818.47
2018-07-20T13:55:07.232Z,100824.52
2018-07-20T13:57:34.236Z,100816.69
2018-07-20T14:00:01.327Z,100817.58
2018-07-20T14:02:28.435Z,100810.78
2018-07-20T14:04:55.674Z,100812.45
2018-07-20T14:07:22.862Z,100812.61
2018-07-20T14:09:49.980Z,100802.64
2018-07-20T14:12:17.310Z,100800.67
2018-07-20T14:14:44.336Z,100798.34
2018-07-20T14:17:11.353Z,100798.95
2018-07-20T14:19:38.374Z,100792.55
2018-07-20T14:22:05.726Z,100792.03
2018-07-20T14:24:32.958Z,100784.52
2018-07-20T14:27:00.482Z,100789.48
2018-07-20T14:29:27.792Z,100787.13
2018-07-20T14:31:54.940Z,100780.36
2018-07-20T14:34:21.993Z,100786.88
2018-07-20T14:36:49.016Z,100783.39
2018-07-20T14:39:16.096Z,100777.48
2018-07-20T14:41:43.132Z,100775.53
2018-07-20T14:44:10.176Z,100779.39
2018-07-20T14:46:37.220Z,100774.67
2018-07-20T14:49:04.420Z,100773.95
2018-07-20T14:51:31.641Z,100775.13
2018-07-20T14:53:58.649Z,100762.94
2018-07-20T14:56:25.937Z,100756.86
2018-07-20T14:58:52.961Z,100760.19
2018-07-20T15:01:20.003Z,100763.22
2018-07-20T15:03:47.317Z,100765.11
2018-07-20T15:06:14.329Z,100757.61
2018-07-20T15:08:41.391Z,100754.28
2018-07-20T15:11:08.430Z,100754.50
2018-07-20T15:13:35.545Z,100751.37
2018-07-20T15:16:02.589Z,100747.49
2018-07-20T15:18:29.740Z,100751.98
2018-07-20T15:20:56.799Z,100751.66
2018-07-20T15:23:23.857Z,100749.17
2018-07-20T15:25:50.844Z,100754.28
2018-07-20T15:28:17.953Z,100748.44
2018-07-20T15:30:44.961Z,100745.92
2018-07-20T15:33:11.973Z,100749.41
2018-07-20T15:35:39.708Z,100752.03
2018-07-20T15:38:06.880Z,100753.78
2018-07-20T15:40:33.900Z,100753.38
2018-07-20T15:43:00.929Z,100750.49
2018-07-20T15:45:28.062Z,100746.23
2018-07-20T15:47:55.081Z,100746.62
2018-07-20T15:50:22.108Z,100747.07
2018-07-20T15:55:16.222Z,100743.08
2018-07-20T15:57:43.385Z,100737.94
2018-07-20T16:00:10.784Z,100739.28
2018-07-20T16:02:37.837Z,100735.47
2018-07-20T16:05:04.938Z,100732.45
2018-07-20T16:07:31.953Z,100732.45
2018-07-20T16:09:58.956Z,100731.17
2018-07-20T16:12:25.990Z,100725.07
2018-07-20T16:14:53.037Z,100721.63
2018-07-20T16:17:20.078Z,100717.38
2018-07-20T16:19:47.111Z,100719.92
2018-07-20T16:22:14.106Z,100714.33
2018-07-20T16:24:41.153Z,100719.50
2018-07-20T16:27:08.160Z,100713.86
2018-07-20T16:29:35.417Z,100709.23
2018-07-20T16:32:02.546Z,100707.16
2018-07-20T16:34:29.648Z,100701.98
2018-07-20T16:36:56.688Z,100700.65
2018-07-20T16:39:23.959Z,100701.06
2018-07-20T16:41:51.056Z,100693.02
2018-07-20T16:44:18.461Z,100686.59
2018-07-20T16:46:45.481Z,100687.87
2018-07-20T16:49:12.480Z,100687.92
2018-07-20T16:51:39.573Z,100683.59
2018-07-20T16:54:07.092Z,100680.56
2018-07-20T16:56:34.148Z,100683.16
2018-07-20T16:59:01.138Z,100678.43
2018-07-20T17:01:28.466Z,100668.56
2018-07-20T17:03:55.647Z,100672.42
2018-07-20T17:06:23.021Z,100670.31
2018-07-20T17:08:50.057Z,100664.77
2018-07-20T17:11:17.156Z,100662.62
2018-07-20T17:13:44.332Z,100662.66
2018-07-20T17:16:11.432Z,100663.92
2018-07-20T17:18:38.424Z,100671.68
2018-07-20T17:21:05.754Z,100665.25
2018-07-20T17:23:32.857Z,100671.23
2018-07-20T17:26:00.405Z,100664.37
2018-07-20T17:28:27.399Z,100663.96
2018-07-20T17:30:54.429Z,100670.39
2018-07-20T17:33:21.532Z,100670.36
2018-07-20T17:35:48.818Z,100672.48
2018-07-20T17:38:15.852Z,100672.06
2018-07-20T17:40:42.859Z,100668.22
2018-07-20T17:43:09.877Z,100663.09
2018-07-20T17:45:37.394Z,100660.94
2018-07-20T17:48:04.459Z,100663.08
2018-07-20T17:50:31.628Z,100663.05
2018-07-20T17:52:58.891Z,100663.07
2018-07-20T17:55:25.953Z,100667.75
2018-07-20T17:57:53.256Z,100664.75
2018-07-20T18:00:21.024Z,100666.45
2018-07-20T18:02:48.322Z,100668.59
2018-07-20T18:05:15.417Z,100667.69
2018-07-20T18:07:42.426Z,100660.36
2018-07-20T18:10:16.486Z,100658.63
2018-07-20T18:12:43.660Z,100658.14
2018-07-20T18:15:10.691Z,100660.70
2018-07-20T18:17:37.948Z,100655.52
2018-07-20T18:20:05.017Z,100664.02
2018-07-20T18:22:33.839Z,100662.66
2018-07-20T18:25:00.902Z,100663.03
2018-07-20T18:27:27.982Z,100665.11
2018-07-20T18:29:55.205Z,100664.20
2018-07-20T18:32:22.247Z,100658.15
2018-07-20T18:34:49.228Z,100655.57
2018-07-20T18:37:16.613Z,100656.75
2018-07-20T18:39:44.028Z,100652.82
2018-07-20T18:42:11.319Z,100657.55
2018-07-20T18:44:38.513Z,100656.58
2018-07-20T18:47:05.555Z,100656.15
2018-07-20T18:49:32.952Z,100656.15
2018-07-20T18:52:00.192Z,100664.14
2018-07-20T18:54:27.304Z,100663.63
2018-07-20T18:56:54.624Z,100668.71
2018-07-20T18:59:22.004Z,100665.27
2018-07-20T19:01:49.257Z,100669.89
2018-07-20T19:04:16.352Z,100667.72
2018-07-20T19:06:43.580Z,100667.22
2018-07-20T19:09:11.354Z,100668.42
2018-07-20T19:11:38.682Z,100673.05
2018-07-20T19:14:05.776Z,100670.33
2018-07-20T19:16:32.800Z,100663.08
2018-07-20T19:18:59.932Z,100668.51
2018-07-20T19:21:27.016Z,100666.30
2018-07-20T19:23:54.437Z,100663.22
2018-07-20T19:26:21.444Z,100664.46
2018-07-20T19:28:48.488Z,100661.38
2018-07-20T19:31:15.587Z,100659.59
2018-07-20T19:33:43.224Z,100666.36
2018-07-20T19:36:10.212Z,100665.36
2018-07-20T19:38:37.213Z,100667.13
2018-07-20T19:41:04.335Z,100665.27
2018-07-20T19:43:31.944Z,100671.63
2018-07-20T19:45:59.231Z,100671.56
2018-07-20T19:48:26.998Z,100672.75
2018-07-20T19:50:54.502Z,100676.92
2018-07-20T19:53:22.356Z,100667.81
2018-07-20T19:55:49.940Z,100675.05
2018-07-20T19:58:17.471Z,100675.42
2018-07-20T20:00:45.354Z,100675.73
2018-07-20T20:03:12.464Z,100673.14
2018-07-20T20:05:39.740Z,100678.09
2018-07-20T20:08:06.740Z,100680.21
2018-07-20T20:10:33.769Z,100683.44
2018-07-20T20:13:00.772Z,100686.91
2018-07-20T20:15:27.853Z,100686.11
2018-07-20T20:17:54.825Z,100694.57
2018-07-20T20:20:21.937Z,100689.83
2018-07-20T20:22:49.022Z,100695.79
2018-07-20T20:25:16.058Z,100697.06
2018-07-20T20:27:43.352Z,100696.99
2018-07-20T20:30:10.369Z,100694.95
2018-07-20T20:32:37.473Z,100688.48
2018-07-20T20:35:04.679Z,100695.30
2018-07-20T20:37:31.725Z,100694.72
2018-07-20T20:39:58.771Z,100698.92
2018-07-20T20:42:25.759Z,100697.57
2018-07-20T20:44:52.757Z,100696.09
2018-07-20T20:47:19.868Z,100699.02
2018-07-20T20:49:46.876Z,100701.69
2018-07-20T20:52:13.969Z,100702.11
2018-07-20T20:54:41.324Z,100695.95
2018-07-20T20:57:08.404Z,100688.64
2018-07-20T20:59:35.480Z,100687.73
2018-07-20T21:02:02.582Z,100698.41
2018-07-20T21:04:29.642Z,100694.16
2018-07-20T21:06:56.703Z,100694.11
2018-07-20T21:09:23.716Z,100700.33
2018-07-20T21:11:50.852Z,100695.23
2018-07-20T21:14:18.117Z,100697.36
2018-07-20T21:16:45.900Z,100697.61
2018-07-20T21:19:13.605Z,100700.45
2018-07-20T21:21:40.716Z,100706.37
2018-07-20T21:24:08.649Z,100706.63
2018-07-20T21:26:36.241Z,100702.94
2018-07-20T21:29:05.626Z,100703.83
2018-07-20T21:31:33.209Z,100703.52
2018-07-20T21:34:00.621Z,100703.86
2018-07-20T21:36:27.618Z,100699.95
2018-07-20T21:38:54.641Z,100698.73
2018-07-20T21:41:21.761Z,100708.91
2018-07-20T21:43:48.905Z,100708.00
2018-07-20T21:46:15.933Z,100704.20
2018-07-20T21:48:43.010Z,100701.32
2018-07-20T21:51:10.160Z,100703.92
2018-07-20T21:53:37.161Z,100704.39
2018-07-20T21:56:04.192Z,100709.77
2018-07-20T21:58:31.268Z,100711.56
2018-07-20T22:00:58.333Z,100710.06
2018-07-20T22:03:25.320Z,100712.78
2018-07-20T22:05:52.406Z,100714.11
2018-07-20T22:08:19.439Z,100715.69
2018-07-20T22:10:46.453Z,100715.52
2018-07-20T22:13:13.489Z,100717.20
2018-07-20T22:15:40.740Z,100718.91
2018-07-20T22:18:07.826Z,100714.89
2018-07-20T22:20:34.912Z,100715.50
2018-07-20T22:23:06.237Z,100710.68
2018-07-20T22:25:41.119Z,100709.16
2018-07-20T22:28:08.162Z,100702.20
2018-07-20T22:30:35.148Z,100700.64
2018-07-20T22:33:02.185Z,100693.31
2018-07-20T22:35:29.416Z,100692.55
2018-07-20T22:37:56.641Z,100696.52
2018-07-20T22:40:23.661Z,100693.11
2018-07-20T22:42:50.862Z,100694.86
2018-07-20T22:45:17.983Z,100695.60
2018-07-20T22:47:45.331Z,100697.95
2018-07-20T22:50:12.352Z,100697.42
2018-07-20T22:52:39.412Z,100692.57
2018-07-20T22:55:06.432Z,100690.56
2018-07-20T22:57:33.893Z,100694.03
2018-07-20T23:00:01.092Z,100692.21
2018-07-20T23:02:28.446Z,100688.51
2018-07-20T23:04:55.489Z,100684.94
2018-07-20T23:07:22.571Z,100688.41
2018-07-20T23:09:49.584Z,100681.41
2018-07-20T23:12:16.705Z,100674.64
2018-07-20T23:14:43.953Z,100672.66
2018-07-20T23:17:10.982Z,100670.42
2018-07-20T23:19:40.760Z,100676.47
2018-07-20T23:22:07.768Z,100671.59
2018-07-20T23:24:34.838Z,100670.70
2018-07-20T23:27:02.044Z,100668.19
2018-07-20T23:29:29.163Z,100666.52
2018-07-20T23:31:56.737Z,100659.89
2018-07-20T23:34:23.886Z,100668.67
2018-07-20T23:36:50.966Z,100668.43
2018-07-20T23:39:18.011Z,100663.25
2018-07-20T23:41:45.413Z,100666.81
2018-07-20T23:44:12.416Z,100670.72
2018-07-20T23:46:39.487Z,100661.33
2018-07-20T23:49:06.847Z,100664.47
2018-07-20T23:51:34.192Z,100658.92
2018-07-20T23:54:24.969Z,100665.17
2018-07-20T23:57:12.325Z,100665.84
2018-07-20T23:59:59.744Z,100659.45
